Time,TemperatureF,DewpointF,PressureIn,WindDirection,WindDirectionDegrees,WindSpeedMPH,WindSpeedGustMPH,Humidity,HourlyPrecipIn,Conditions,Clouds,dailyrainin,SoftwareType,DateUTC
2013-04-18 00:03:00,52.0,40.0,30.24,North,6,0.0,0.0,64,0.00,,,0.00,,2013-04-18 04:03:00,
2013-04-18 00:13:00,52.0,40.0,30.24,North,6,0.0,0.0,64,0.00,,,0.00,,2013-04-18 04:13:00,
2013-04-18 00:23:00,52.0,41.0,30.25,North,6,0.0,0.0,66,0.00,,,0.00,,2013-04-18 04:23:00,
2013-04-18 00:33:00,51.0,41.0,30.26,North,6,0.0,0.0,69,0.00,,,0.00,,2013-04-18 04:33:00,
2013-04-18 00:43:00,50.0,41.0,30.26,North,6,0.0,0.0,72,0.00,,,0.00,,2013-04-18 04:43:00,
2013-04-18 00:53:00,50.0,41.0,30.26,North,6,0.0,0.0,72,0.00,,,0.00,,2013-04-18 04:53:00,
2013-04-18 01:02:00,49.0,41.0,30.26,North,6,0.0,0.0,73,0.00,,,0.00,,2013-04-18 05:02:00,
2013-04-18 01:12:00,49.0,41.0,30.26,North,6,0.0,0.0,74,0.00,,,0.00,,2013-04-18 05:12:00,
2013-04-18 01:22:00,49.0,41.0,30.26,North,6,0.0,0.0,74,0.00,,,0.00,,2013-04-18 05:22:00,
2013-04-18 01:33:00,48.0,40.0,30.26,North,6,0.0,1.0,75,0.00,,,0.00,,2013-04-18 05:33:00,
2013-04-18 01:42:00,47.0,41.0,30.26,North,6,0.0,0.0,78,0.00,,,0.00,,2013-04-18 05:42:00,
2013-04-18 01:52:00,47.0,41.0,30.26,North,6,0.0,0.0,78,0.00,,,0.00,,2013-04-18 05:52:00,
2013-04-18 02:02:00,47.0,41.0,30.26,North,6,0.0,0.0,79,0.00,,,0.00,,2013-04-18 06:02:00,
2013-04-18 02:12:00,46.0,41.0,30.25,North,6,0.0,0.0,81,0.00,,,0.00,,2013-04-18 06:12:00,
2013-04-18 02:22:00,46.0,41.0,30.25,North,6,0.0,0.0,81,0.00,,,0.00,,2013-04-18 06:22:00,
2013-04-18 02:32:00,46.0,41.0,30.25,North,6,0.0,1.0,81,0.00,,,0.00,,2013-04-18 06:32:00,
2013-04-18 02:42:00,48.0,41.0,30.24,North,6,0.0,2.0,76,0.00,,,0.00,,2013-04-18 06:42:00,
2013-04-18 02:52:00,48.0,41.0,30.24,North,6,0.0,2.0,76,0.00,,,0.00,,2013-04-18 06:52:00,
2013-04-18 03:02:00,48.0,40.0,30.25,North,6,0.0,0.0,75,0.00,,,0.00,,2013-04-18 07:02:00,
2013-04-18 03:12:00,48.0,41.0,30.26,North,6,0.0,0.0,77,0.00,,,0.00,,2013-04-18 07:12:00,
2013-04-18 03:22:00,48.0,41.0,30.26,North,6,0.0,0.0,77,0.00,,,0.00,,2013-04-18 07:22:00,
2013-04-18 03:32:00,47.0,41.0,30.27,North,6,0.0,0.0,78,0.00,,,0.00,,2013-04-18 07:32:00,
2013-04-18 03:42:00,47.0,41.0,30.28,North,6,0.0,0.0,79,0.00,,,0.00,,2013-04-18 07:42:00,
2013-04-18 03:52:00,47.0,41.0,30.28,North,6,0.0,0.0,79,0.00,,,0.00,,2013-04-18 07:52:00,
2013-04-18 04:02:00,47.0,41.0,30.28,North,6,0.0,0.0,80,0.00,,,0.00,,2013-04-18 08:02:00,
2013-04-18 04:12:00,46.0,41.0,30.28,North,6,0.0,2.0,81,0.00,,,0.00,,2013-04-18 08:12:00,
2013-04-18 04:22:00,46.0,41.0,30.28,North,6,0.0,2.0,81,0.00,,,0.00,,2013-04-18 08:22:00,
2013-04-18 04:32:00,47.0,42.0,30.28,North,6,0.0,1.0,82,0.00,,,0.00,,2013-04-18 08:32:00,
2013-04-18 04:42:00,47.0,42.0,30.27,North,6,0.0,0.0,83,0.00,,,0.00,,2013-04-18 08:42:00,
2013-04-18 04:52:00,47.0,42.0,30.27,North,6,0.0,0.0,83,0.00,,,0.00,,2013-04-18 08:52:00,
2013-04-18 05:02:00,47.0,42.0,30.27,North,6,0.0,0.0,84,0.00,,,0.00,,2013-04-18 09:02:00,
2013-04-18 05:12:00,46.0,41.0,30.27,North,6,0.0,0.0,84,0.00,,,0.00,,2013-04-18 09:12:00,
2013-04-18 05:22:00,46.0,41.0,30.27,North,6,0.0,0.0,84,0.00,,,0.00,,2013-04-18 09:22:00,
2013-04-18 05:33:00,46.0,42.0,30.27,North,6,0.0,0.0,85,0.00,,,0.00,,2013-04-18 09:33:00,
2013-04-18 05:43:00,46.0,42.0,30.27,North,6,1.0,5.0,87,0.00,,,0.00,,2013-04-18 09:43:00,
2013-04-18 05:53:00,46.0,42.0,30.27,North,6,1.0,5.0,87,0.00,,,0.00,,2013-04-18 09:53:00,
2013-04-18 06:03:00,47.0,43.0,30.27,North,6,0.0,0.0,86,0.00,,,0.00,,2013-04-18 10:03:00,
2013-04-18 06:12:00,47.0,43.0,30.27,North,6,0.0,0.0,86,0.00,,,0.00,,2013-04-18 10:12:00,
2013-04-18 06:23:00,47.0,42.0,30.27,North,6,0.0,2.0,83,0.00,,,0.00,,2013-04-18 10:23:00,
2013-04-18 06:32:00,48.0,43.0,30.27,North,6,0.0,1.0,82,0.00,,,0.00,,2013-04-18 10:32:00,
2013-04-18 06:42:00,48.0,43.0,30.27,North,6,0.0,1.0,82,0.00,,,0.00,,2013-04-18 10:42:00,
2013-04-18 06:52:00,48.0,43.0,30.28,North,6,0.0,3.0,82,0.00,,,0.00,,2013-04-18 10:52:00,
2013-04-18 07:02:00,48.0,42.0,30.28,North,6,1.0,5.0,81,0.00,,,0.00,,2013-04-18 11:02:00,
2013-04-18 07:12:00,49.0,43.0,30.29,North,6,2.0,3.0,80,0.00,,,0.00,,2013-04-18 11:12:00,
2013-04-18 07:22:00,49.0,43.0,30.29,North,6,2.0,3.0,80,0.00,,,0.00,,2013-04-18 11:22:00,
2013-04-18 07:32:00,50.0,43.0,30.30,North,6,0.0,6.0,77,0.00,,,0.00,,2013-04-18 11:32:00,
2013-04-18 07:42:00,50.0,42.0,30.30,NNE,16,1.0,6.0,74,0.00,,,0.00,,2013-04-18 11:42:00,
2013-04-18 07:52:00,50.0,42.0,30.30,NNE,16,1.0,6.0,74,0.00,,,0.00,,2013-04-18 11:52:00,
2013-04-18 08:02:00,51.0,42.0,30.30,NNE,16,1.0,5.0,70,0.00,,,0.00,,2013-04-18 12:02:00,
2013-04-18 08:12:00,52.0,42.0,30.29,ENE,72,4.0,9.0,68,0.00,,,0.00,,2013-04-18 12:12:00,
2013-04-18 08:22:00,52.0,42.0,30.29,ENE,72,4.0,9.0,68,0.00,,,0.00,,2013-04-18 12:22:00,
2013-04-18 08:32:00,53.0,42.0,30.29,East,90,2.0,7.0,65,0.00,,,0.00,,2013-04-18 12:32:00,
2013-04-18 08:42:00,53.0,42.0,30.29,East,90,2.0,7.0,65,0.00,,,0.00,,2013-04-18 12:42:00,
2013-04-18 08:52:00,55.0,40.0,30.29,SE,137,3.0,10.0,56,0.00,,,0.00,,2013-04-18 12:52:00,
2013-04-18 09:02:00,57.0,37.0,30.29,SE,132,6.0,12.0,47,0.00,,,0.00,,2013-04-18 13:02:00,
2013-04-18 09:12:00,58.0,37.0,30.29,SE,130,3.0,12.0,45,0.00,,,0.00,,2013-04-18 13:12:00,
2013-04-18 09:22:00,58.0,37.0,30.29,SE,130,3.0,12.0,45,0.00,,,0.00,,2013-04-18 13:22:00,
2013-04-18 09:32:00,57.0,36.0,30.29,SE,144,7.0,16.0,46,0.00,,,0.00,,2013-04-18 13:32:00,
2013-04-18 09:42:00,57.0,38.0,30.29,SE,133,5.0,12.0,48,0.00,,,0.00,,2013-04-18 13:42:00,
2013-04-18 09:52:00,57.0,38.0,30.29,SE,133,5.0,12.0,48,0.00,,,0.00,,2013-04-18 13:52:00,
2013-04-18 10:02:00,57.0,37.0,30.29,SE,145,7.0,16.0,47,0.00,,,0.00,,2013-04-18 14:02:00,
2013-04-18 10:12:00,58.0,38.0,30.30,SE,134,6.0,12.0,47,0.00,,,0.00,,2013-04-18 14:12:00,
2013-04-18 10:22:00,58.0,38.0,30.30,SE,134,6.0,12.0,47,0.00,,,0.00,,2013-04-18 14:22:00,
2013-04-18 10:32:00,57.0,38.0,30.31,SE,145,5.0,14.0,48,0.00,,,0.00,,2013-04-18 14:32:00,
2013-04-18 10:43:00,56.0,37.0,30.31,SE,139,8.0,14.0,49,0.00,,,0.00,,2013-04-18 14:43:00,
2013-04-18 10:52:00,56.0,37.0,30.31,SE,139,8.0,14.0,49,0.00,,,0.00,,2013-04-18 14:52:00,
2013-04-18 11:03:00,56.0,38.0,30.31,SSE,147,7.0,13.0,50,0.00,,,0.00,,2013-04-18 15:03:00,
2013-04-18 11:12:00,56.0,38.0,30.31,SSE,147,7.0,13.0,50,0.00,,,0.00,,2013-04-18 15:12:00,
2013-04-18 11:22:00,57.0,39.0,30.31,SE,137,9.0,13.0,50,0.00,,,0.00,,2013-04-18 15:22:00,
2013-04-18 11:33:00,57.0,38.0,30.30,ESE,123,9.0,16.0,49,0.00,,,0.00,,2013-04-18 15:33:00,
2013-04-18 11:43:00,57.0,37.0,30.29,SE,143,6.0,12.0,47,0.00,,,0.00,,2013-04-18 15:43:00,
2013-04-18 11:52:00,57.0,37.0,30.29,SE,143,6.0,12.0,47,0.00,,,0.00,,2013-04-18 15:52:00,
2013-04-18 12:03:00,57.0,37.0,30.30,SSE,154,6.0,12.0,47,0.00,,,0.00,,2013-04-18 16:03:00,
2013-04-18 12:13:00,57.0,36.0,30.30,South,180,12.0,20.0,46,0.00,,,0.00,,2013-04-18 16:13:00,
2013-04-18 12:23:00,57.0,36.0,30.30,South,180,12.0,20.0,46,0.00,,,0.00,,2013-04-18 16:23:00,
2013-04-18 12:33:00,56.0,38.0,30.29,SSE,158,10.0,17.0,51,0.00,,,0.00,,2013-04-18 16:33:00,
2013-04-18 12:43:00,56.0,39.0,30.28,SSE,148,8.0,17.0,53,0.00,,,0.00,,2013-04-18 16:43:00,
2013-04-18 12:52:00,56.0,39.0,30.28,SSE,148,8.0,17.0,53,0.00,,,0.00,,2013-04-18 16:52:00,
2013-04-18 13:03:00,56.0,39.0,30.28,SE,146,7.0,13.0,53,0.00,,,0.00,,2013-04-18 17:03:00,
2013-04-18 13:12:00,56.0,40.0,30.28,SSE,163,6.0,17.0,55,0.00,,,0.00,,2013-04-18 17:12:00,
2013-04-18 13:22:00,56.0,40.0,30.28,SSE,163,6.0,17.0,55,0.00,,,0.00,,2013-04-18 17:22:00,
2013-04-18 13:33:00,56.0,41.0,30.27,SE,143,10.0,18.0,57,0.00,,,0.00,,2013-04-18 17:33:00,
2013-04-18 13:42:00,56.0,41.0,30.27,SSE,147,9.0,13.0,57,0.00,,,0.00,,2013-04-18 17:42:00,
2013-04-18 13:52:00,56.0,41.0,30.27,SSE,147,9.0,13.0,57,0.00,,,0.00,,2013-04-18 17:52:00,
2013-04-18 14:03:00,56.0,41.0,30.27,ESE,117,11.0,24.0,58,0.00,,,0.00,,2013-04-18 18:03:00,
2013-04-18 14:12:00,55.0,41.0,30.27,SE,146,10.0,14.0,58,0.00,,,0.00,,2013-04-18 18:12:00,
2013-04-18 14:23:00,55.0,41.0,30.27,SE,146,10.0,14.0,58,0.00,,,0.00,,2013-04-18 18:23:00,
2013-04-18 14:32:00,55.0,41.0,30.26,SE,130,6.0,13.0,59,0.00,,,0.00,,2013-04-18 18:32:00,
2013-04-18 14:42:00,55.0,41.0,30.25,SE,142,5.0,12.0,60,0.00,,,0.00,,2013-04-18 18:42:00,
2013-04-18 14:52:00,55.0,41.0,30.25,SE,142,5.0,12.0,60,0.00,,,0.00,,2013-04-18 18:52:00,
2013-04-18 15:02:00,55.0,42.0,30.24,SSE,151,7.0,17.0,61,0.00,,,0.00,,2013-04-18 19:02:00,
2013-04-18 15:12:00,55.0,42.0,30.24,SSE,151,7.0,17.0,61,0.00,,,0.00,,2013-04-18 19:12:00,
2013-04-18 15:22:00,55.0,42.0,30.24,SSE,153,7.0,12.0,61,0.00,,,0.00,,2013-04-18 19:22:00,
2013-04-18 15:32:00,55.0,42.0,30.24,SE,124,6.0,16.0,62,0.00,,,0.00,,2013-04-18 19:32:00,
2013-04-18 15:42:00,55.0,42.0,30.24,SE,124,6.0,16.0,62,0.00,,,0.00,,2013-04-18 19:42:00,
2013-04-18 15:52:00,55.0,43.0,30.23,SSE,150,6.0,12.0,63,0.00,,,0.00,,2013-04-18 19:52:00,
2013-04-18 16:02:00,54.0,43.0,30.23,SE,143,6.0,12.0,65,0.00,,,0.00,,2013-04-18 20:02:00,
2013-04-18 16:12:00,54.0,43.0,30.22,SE,140,3.0,12.0,66,0.00,,,0.00,,2013-04-18 20:12:00,
2013-04-18 16:22:00,54.0,43.0,30.22,SE,140,3.0,12.0,66,0.00,,,0.00,,2013-04-18 20:22:00,
2013-04-18 16:32:00,54.0,43.0,30.22,SE,145,2.0,7.0,66,0.00,,,0.00,,2013-04-18 20:32:00,
2013-04-18 16:42:00,54.0,43.0,30.20,ESE,121,6.0,13.0,67,0.00,,,0.00,,2013-04-18 20:42:00,
2013-04-18 16:52:00,54.0,43.0,30.20,ESE,121,6.0,13.0,67,0.00,,,0.00,,2013-04-18 20:52:00,
2013-04-18 17:02:00,54.0,44.0,30.20,SE,139,7.0,14.0,68,0.00,,,0.00,,2013-04-18 21:02:00,
2013-04-18 17:12:00,54.0,44.0,30.20,SE,137,3.0,12.0,69,0.00,,,0.00,,2013-04-18 21:12:00,
2013-04-18 17:22:00,54.0,44.0,30.20,SE,137,3.0,12.0,69,0.00,,,0.00,,2013-04-18 21:22:00,
2013-04-18 17:33:00,54.0,45.0,30.20,ESE,118,5.0,12.0,72,0.00,,,0.00,,2013-04-18 21:33:00,
2013-04-18 17:43:00,54.0,45.0,30.19,SSE,154,6.0,13.0,72,0.00,,,0.00,,2013-04-18 21:43:00,
2013-04-18 17:52:00,54.0,45.0,30.19,SSE,154,6.0,13.0,72,0.00,,,0.00,,2013-04-18 21:52:00,
2013-04-18 18:02:00,53.0,45.0,30.19,SE,139,5.0,13.0,73,0.00,,,0.00,,2013-04-18 22:02:00,
2013-04-18 18:13:00,53.0,45.0,30.18,SSE,147,6.0,12.0,73,0.00,,,0.00,,2013-04-18 22:13:00,
2013-04-18 18:23:00,53.0,45.0,30.18,SSE,147,6.0,12.0,73,0.00,,,0.00,,2013-04-18 22:23:00,
2013-04-18 18:32:00,53.0,45.0,30.18,SSE,150,1.0,0.0,73,0.00,,,0.00,,2013-04-18 22:32:00,
2013-04-18 18:42:00,53.0,45.0,30.18,SSE,150,1.0,0.0,73,0.00,,,0.00,,2013-04-18 22:42:00,
2013-04-18 18:52:00,53.0,45.0,30.18,SSE,150,1.0,0.0,73,0.00,,,0.00,,2013-04-18 22:52:00,
2013-04-18 19:04:00,53.0,45.0,30.18,SSE,150,1.0,0.0,73,0.00,,,0.00,,2013-04-18 23:04:00,
2013-04-18 19:12:00,53.0,45.0,30.18,SSE,150,1.0,0.0,73,0.00,,,0.00,,2013-04-18 23:12:00,
2013-04-18 19:21:00,53.0,45.0,30.18,SSE,150,1.0,0.0,73,0.00,,,0.00,,2013-04-18 23:21:00,
2013-04-18 19:32:00,53.0,45.0,30.18,SSE,150,1.0,0.0,73,0.00,,,0.00,,2013-04-18 23:32:00,
2013-04-18 19:42:00,53.0,45.0,30.18,SSE,150,1.0,0.0,73,0.00,,,0.00,,2013-04-18 23:42:00,
2013-04-18 19:52:00,53.0,45.0,30.18,SSE,150,1.0,0.0,73,0.00,,,0.00,,2013-04-18 23:52:00,
2013-04-18 20:01:00,53.0,45.0,30.18,SSE,150,1.0,0.0,73,0.00,,,0.00,,2013-04-19 00:01:00,
2013-04-18 20:12:00,53.0,45.0,30.18,SSE,150,1.0,0.0,73,0.00,,,0.00,,2013-04-19 00:12:00,
2013-04-18 20:22:00,53.0,45.0,30.18,SSE,150,1.0,0.0,73,0.00,,,0.00,,2013-04-19 00:22:00,
2013-04-18 20:32:00,53.0,45.0,30.18,SSE,150,1.0,0.0,73,0.00,,,0.00,,2013-04-19 00:32:00,
2013-04-18 20:42:00,53.0,45.0,30.18,SSE,150,1.0,0.0,73,0.00,,,0.00,,2013-04-19 00:42:00,
2013-04-18 20:52:00,53.0,45.0,30.18,SSE,150,1.0,0.0,73,0.00,,,0.00,,2013-04-19 00:52:00,
2013-04-18 21:01:00,53.0,45.0,30.18,SSE,150,1.0,0.0,73,0.00,,,0.00,,2013-04-19 01:01:00,
2013-04-18 21:11:00,53.0,45.0,30.18,SSE,150,1.0,0.0,73,0.00,,,0.00,,2013-04-19 01:11:00,
2013-04-18 21:21:00,53.0,45.0,30.18,SSE,150,1.0,0.0,73,0.00,,,0.00,,2013-04-19 01:21:00,
2013-04-18 21:32:00,53.0,45.0,30.18,SSE,150,1.0,0.0,73,0.00,,,0.00,,2013-04-19 01:32:00,
2013-04-18 21:42:00,53.0,45.0,30.18,SSE,150,1.0,0.0,73,0.00,,,0.00,,2013-04-19 01:42:00,
2013-04-18 21:52:00,53.0,45.0,30.18,SSE,150,1.0,0.0,73,0.00,,,0.00,,2013-04-19 01:52:00,
2013-04-18 22:02:00,53.0,45.0,30.18,SSE,150,1.0,0.0,73,0.00,,,0.00,,2013-04-19 02:02:00,
2013-04-18 22:11:00,53.0,45.0,30.18,SSE,150,1.0,0.0,73,0.00,,,0.00,,2013-04-19 02:11:00,
2013-04-18 22:21:00,53.0,45.0,30.18,SSE,150,1.0,0.0,73,0.00,,,0.00,,2013-04-19 02:21:00,
2013-04-18 22:32:00,53.0,45.0,30.18,SSE,150,1.0,0.0,73,0.00,,,0.00,,2013-04-19 02:32:00,
2013-04-18 22:42:00,53.0,45.0,30.18,SSE,150,1.0,0.0,73,0.00,,,0.00,,2013-04-19 02:42:00,
2013-04-18 22:51:00,53.0,45.0,30.18,SSE,150,1.0,0.0,73,0.00,,,0.00,,2013-04-19 02:51:00,
2013-04-18 23:01:00,53.0,45.0,30.18,SSE,150,1.0,0.0,73,0.00,,,0.00,,2013-04-19 03:01:00,
2013-04-18 23:12:00,53.0,45.0,30.18,SSE,150,1.0,0.0,73,0.00,,,0.00,,2013-04-19 03:12:00,
2013-04-18 23:21:00,53.0,45.0,30.18,SSE,150,1.0,0.0,73,0.00,,,0.00,,2013-04-19 03:21:00,
2013-04-18 23:33:00,53.0,45.0,30.18,SSE,150,1.0,0.0,73,0.00,,,0.00,,2013-04-19 03:33:00,
2013-04-18 23:43:00,53.0,45.0,30.18,SSE,150,1.0,0.0,73,0.00,,,0.00,,2013-04-19 03:43:00,
2013-04-18 23:53:00,53.0,45.0,30.18,SSE,150,1.0,0.0,73,0.00,,,0.00,,2013-04-19 03:53:00,